Supply — NACO — position and weather

sailwx.info

Track history (hours):
 
Tides and Currents Weather Stations Pressure Air Temp Water Temp Dewpoint Dewpoint Depression Visibility Wind Speed Wind Dir Waves Ship Positions

Supply

Last reported at 2018-Jul-21 18:34 UTC. Time now 2018-Jul-22 02:57 UTC.
Position N 36°57' W 076°20'.

Length 230 m; draft 11 m.

Type: Military. MMSI: 338947000.

Date/timePositionNaut miles runAvg speedWind from/ knotsBaromVisibWave heightAir tempDewpointWater temp
2018-Jul-21 18:34N 36°57' W 076°20'  
2018-Jul-16 18:10N 36°53' W 076°20'0 1.2
2018-Jul-16 18:00N 36°53' W 076°20'0 0.0
2018-Jul-16 12:39N 36°53' W 076°20'0 0.0
2018-Jul-16 12:18N 36°53' W 076°20'0 0.0
2018-Jul-16 12:00N 36°53' W 076°20'0 0.0
2018-Jul-16 11:21N 36°53' W 076°20'0 0.0
2018-Jul-16 11:00N 36°53' W 076°20'0 0.0
2018-Jul-16 08:45N 36°53' W 076°20'0 0.0
2018-Jul-16 08:27N 36°53' W 076°20'0 0.0
2018-Jul-16 08:00N 36°53' W 076°20'0 0.0
2018-Jul-16 07:15N 36°53' W 076°20'0 0.0
2018-Jul-16 06:33N 36°53' W 076°20'0 0.0
2018-Jul-16 06:21N 36°53' W 076°20'0 0.0
2018-Jul-16 03:45N 36°53' W 076°20'0 0.0
2018-Jul-16 03:27N 36°53' W 076°20'0 0.0
2018-Jul-16 02:57N 36°53' W 076°20'0 0.0
2018-Jul-16 02:03N 36°53' W 076°20'0 0.0
2018-Jul-16 01:39N 36°53' W 076°20'0 0.0
2018-Jul-15 12:38N 36°53' W 076°20'0 0.1
2018-Jul-15 12:29N 36°53' W 076°20'1 1.6
2018-Jul-15 12:00N 36°54' W 076°20'21 9.2
2018-Jul-15 09:41N 36°54' W 075°54'2710.1
2018-Jul-15 06:59N 36°30' W 075°36'4 9.4
2018-Jul-15 06:30N 36°26' W 075°34'510.3
2018-Jul-15 06:00N 36°22' W 075°31'14 8.3
2018-Jul-15 04:18N 36°34' W 075°40'3 7.6
2018-Jul-15 03:55N 36°31' W 075°38'4 0.2
2018-Jul-14 06:29N 36°30' W 075°34'5 9.1
2018-Jul-14 05:56N 36°34' W 075°32'4 9.2
2018-Jul-14 05:27N 36°38' W 075°29'4 9.1
2018-Jul-14 05:00N 36°42' W 075°27'8 9.1
2018-Jul-14 04:08N 36°49' W 075°24'1 9.0
2018-Jul-14 03:59N 36°51' W 075°23'6 9.0
2018-Jul-14 03:20N 36°56' W 075°20'3 9.0
2018-Jul-14 03:00N 36°59' W 075°19'  
Track history (hours):
 
Tides and Currents Weather Stations Pressure Air Temp Water Temp Dewpoint Dewpoint Depression Visibility Wind Speed Wind Dir Waves Ship Positions

Supply

Last reported at 2018-Jul-21 18:34 UTC. Time now 2018-Jul-22 02:57 UTC.
Position N 36°57' W 076°20'.

Length 230 m; draft 11 m.

Type: Military. MMSI: 338947000.

Date/timePositionNaut miles runAvg speedWind from/ knotsBaromVisibWave heightAir tempDewpointWater temp
2018-Jul-21 18:34N 36°57' W 076°20'  
2018-Jul-16 18:10N 36°53' W 076°20'0 1.2
2018-Jul-16 18:00N 36°53' W 076°20'0 0.0
2018-Jul-16 12:39N 36°53' W 076°20'0 0.0
2018-Jul-16 12:18N 36°53' W 076°20'0 0.0
2018-Jul-16 12:00N 36°53' W 076°20'0 0.0
2018-Jul-16 11:21N 36°53' W 076°20'0 0.0
2018-Jul-16 11:00N 36°53' W 076°20'0 0.0
2018-Jul-16 08:45N 36°53' W 076°20'0 0.0
2018-Jul-16 08:27N 36°53' W 076°20'0 0.0
2018-Jul-16 08:00N 36°53' W 076°20'0 0.0
2018-Jul-16 07:15N 36°53' W 076°20'0 0.0
2018-Jul-16 06:33N 36°53' W 076°20'0 0.0
2018-Jul-16 06:21N 36°53' W 076°20'0 0.0
2018-Jul-16 03:45N 36°53' W 076°20'0 0.0
2018-Jul-16 03:27N 36°53' W 076°20'0 0.0
2018-Jul-16 02:57N 36°53' W 076°20'0 0.0
2018-Jul-16 02:03N 36°53' W 076°20'0 0.0
2018-Jul-16 01:39N 36°53' W 076°20'0 0.0
2018-Jul-15 12:38N 36°53' W 076°20'0 0.1
2018-Jul-15 12:29N 36°53' W 076°20'1 1.6
2018-Jul-15 12:00N 36°54' W 076°20'21 9.2
2018-Jul-15 09:41N 36°54' W 075°54'2710.1
2018-Jul-15 06:59N 36°30' W 075°36'4 9.4
2018-Jul-15 06:30N 36°26' W 075°34'510.3
2018-Jul-15 06:00N 36°22' W 075°31'14 8.3
2018-Jul-15 04:18N 36°34' W 075°40'3 7.6
2018-Jul-15 03:55N 36°31' W 075°38'4 0.2
2018-Jul-14 06:29N 36°30' W 075°34'5 9.1
2018-Jul-14 05:56N 36°34' W 075°32'4 9.2
2018-Jul-14 05:27N 36°38' W 075°29'4 9.1
2018-Jul-14 05:00N 36°42' W 075°27'8 9.1
2018-Jul-14 04:08N 36°49' W 075°24'1 9.0
2018-Jul-14 03:59N 36°51' W 075°23'6 9.0
2018-Jul-14 03:20N 36°56' W 075°20'3 9.0
2018-Jul-14 03:00N 36°59' W 075°19'  

Dump ship's entire track history